sensor_id;sensor_type;location;lat;lon;timestamp;P1;durP1;ratioP1;P2;durP2;ratioP2
1378;SDS011;683;48.738;9.226;2022-08-19T00:00:42;17.93;;;16.37;;
1378;SDS011;683;48.738;9.226;2022-08-19T00:03:10;18.77;;;16.80;;
1378;SDS011;683;48.738;9.226;2022-08-19T00:05:38;18.40;;;16.80;;
1378;SDS011;683;48.738;9.226;2022-08-19T00:08:10;19.87;;;18.00;;
1378;SDS011;683;48.738;9.226;2022-08-19T00:10:38;19.70;;;17.87;;
1378;SDS011;683;48.738;9.226;2022-08-19T00:13:06;20.93;;;18.70;;
1378;SDS011;683;48.738;9.226;2022-08-19T00:15:33;19.30;;;17.40;;
1378;SDS011;683;48.738;9.226;2022-08-19T00:18:01;18.80;;;17.10;;
1378;SDS011;683;48.738;9.226;2022-08-19T00:20:29;20.03;;;18.13;;
1378;SDS011;683;48.738;9.226;2022-08-19T00:22:58;19.80;;;17.87;;
1378;SDS011;683;48.738;9.226;2022-08-19T00:25:27;21.50;;;18.70;;
1378;SDS011;683;48.738;9.226;2022-08-19T00:27:55;18.70;;;17.00;;
1378;SDS011;683;48.738;9.226;2022-08-19T00:30:24;19.13;;;17.43;;
1378;SDS011;683;48.738;9.226;2022-08-19T00:32:53;19.30;;;17.33;;
1378;SDS011;683;48.738;9.226;2022-08-19T00:35:22;18.87;;;17.20;;
1378;SDS011;683;48.738;9.226;2022-08-19T00:37:53;19.53;;;17.63;;
1378;SDS011;683;48.738;9.226;2022-08-19T00:40:21;19.27;;;17.37;;
1378;SDS011;683;48.738;9.226;2022-08-19T00:42:52;18.73;;;16.93;;
1378;SDS011;683;48.738;9.226;2022-08-19T00:45:21;20.10;;;18.20;;
1378;SDS011;683;48.738;9.226;2022-08-19T00:47:51;19.30;;;17.50;;
1378;SDS011;683;48.738;9.226;2022-08-19T00:50:19;20.83;;;18.83;;
1378;SDS011;683;48.738;9.226;2022-08-19T00:52:49;20.13;;;18.10;;
1378;SDS011;683;48.738;9.226;2022-08-19T00:55:18;20.60;;;18.80;;
1378;SDS011;683;48.738;9.226;2022-08-19T00:57:49;19.77;;;17.83;;
1378;SDS011;683;48.738;9.226;2022-08-19T01:00:22;21.17;;;18.87;;
1378;SDS011;683;48.738;9.226;2022-08-19T01:02:51;20.67;;;18.67;;
1378;SDS011;683;48.738;9.226;2022-08-19T01:05:20;21.30;;;19.10;;
1378;SDS011;683;48.738;9.226;2022-08-19T01:07:53;21.03;;;19.07;;
1378;SDS011;683;48.738;9.226;2022-08-19T01:10:23;20.77;;;18.20;;
1378;SDS011;683;48.738;9.226;2022-08-19T01:12:55;21.40;;;19.40;;
1378;SDS011;683;48.738;9.226;2022-08-19T01:15:26;20.30;;;18.50;;
1378;SDS011;683;48.738;9.226;2022-08-19T01:17:58;20.77;;;18.67;;
1378;SDS011;683;48.738;9.226;2022-08-19T01:20:28;21.30;;;19.37;;
1378;SDS011;683;48.738;9.226;2022-08-19T01:22:58;21.03;;;19.13;;
1378;SDS011;683;48.738;9.226;2022-08-19T01:25:26;20.20;;;18.30;;
1378;SDS011;683;48.738;9.226;2022-08-19T01:27:57;19.67;;;17.77;;
1378;SDS011;683;48.738;9.226;2022-08-19T01:30:26;20.33;;;18.43;;
1378;SDS011;683;48.738;9.226;2022-08-19T01:32:56;19.27;;;17.37;;
1378;SDS011;683;48.738;9.226;2022-08-19T01:35:26;20.60;;;18.70;;
1378;SDS011;683;48.738;9.226;2022-08-19T01:37:56;20.07;;;18.17;;
1378;SDS011;683;48.738;9.226;2022-08-19T01:40:30;21.20;;;19.13;;
1378;SDS011;683;48.738;9.226;2022-08-19T01:42:59;19.10;;;17.33;;
1378;SDS011;683;48.738;9.226;2022-08-19T01:45:27;20.33;;;18.47;;
1378;SDS011;683;48.738;9.226;2022-08-19T01:47:56;20.73;;;18.73;;
1378;SDS011;683;48.738;9.226;2022-08-19T01:50:25;19.07;;;17.10;;
1378;SDS011;683;48.738;9.226;2022-08-19T01:52:53;19.63;;;17.43;;
1378;SDS011;683;48.738;9.226;2022-08-19T01:55:22;20.83;;;18.87;;
1378;SDS011;683;48.738;9.226;2022-08-19T01:57:51;22.60;;;20.20;;
1378;SDS011;683;48.738;9.226;2022-08-19T02:00:25;20.43;;;18.30;;
1378;SDS011;683;48.738;9.226;2022-08-19T02:02:55;20.33;;;18.40;;
1378;SDS011;683;48.738;9.226;2022-08-19T02:05:23;24.13;;;21.63;;
1378;SDS011;683;48.738;9.226;2022-08-19T02:07:51;20.00;;;17.90;;
1378;SDS011;683;48.738;9.226;2022-08-19T02:10:20;20.27;;;18.27;;
1378;SDS011;683;48.738;9.226;2022-08-19T02:12:50;21.03;;;18.83;;
1378;SDS011;683;48.738;9.226;2022-08-19T02:15:18;22.27;;;20.13;;
1378;SDS011;683;48.738;9.226;2022-08-19T02:17:47;21.23;;;19.30;;
1378;SDS011;683;48.738;9.226;2022-08-19T02:20:15;25.17;;;20.93;;
1378;SDS011;683;48.738;9.226;2022-08-19T02:22:43;23.23;;;20.90;;
1378;SDS011;683;48.738;9.226;2022-08-19T02:25:12;22.57;;;20.40;;
1378;SDS011;683;48.738;9.226;2022-08-19T02:27:42;27.23;;;22.10;;
1378;SDS011;683;48.738;9.226;2022-08-19T02:30:13;22.13;;;19.93;;
1378;SDS011;683;48.738;9.226;2022-08-19T02:32:42;24.50;;;22.00;;
1378;SDS011;683;48.738;9.226;2022-08-19T02:35:10;23.30;;;21.10;;
1378;SDS011;683;48.738;9.226;2022-08-19T02:37:39;22.37;;;20.00;;
1378;SDS011;683;48.738;9.226;2022-08-19T02:40:24;25.40;;;22.90;;
1378;SDS011;683;48.738;9.226;2022-08-19T02:42:54;25.20;;;21.70;;
1378;SDS011;683;48.738;9.226;2022-08-19T02:45:22;26.80;;;23.63;;
1378;SDS011;683;48.738;9.226;2022-08-19T02:47:49;24.47;;;21.87;;
1378;SDS011;683;48.738;9.226;2022-08-19T02:50:17;26.67;;;23.80;;
1378;SDS011;683;48.738;9.226;2022-08-19T02:52:45;25.83;;;23.20;;
1378;SDS011;683;48.738;9.226;2022-08-19T02:55:13;25.10;;;21.30;;
1378;SDS011;683;48.738;9.226;2022-08-19T02:57:41;27.57;;;23.73;;
1378;SDS011;683;48.738;9.226;2022-08-19T03:00:10;33.13;;;29.53;;
1378;SDS011;683;48.738;9.226;2022-08-19T03:02:39;29.30;;;26.20;;
1378;SDS011;683;48.738;9.226;2022-08-19T03:05:08;26.07;;;23.57;;
1378;SDS011;683;48.738;9.226;2022-08-19T03:07:37;26.33;;;23.53;;
1378;SDS011;683;48.738;9.226;2022-08-19T03:10:05;26.93;;;24.30;;
1378;SDS011;683;48.738;9.226;2022-08-19T03:12:34;28.33;;;25.20;;
1378;SDS011;683;48.738;9.226;2022-08-19T03:15:03;27.97;;;25.20;;
1378;SDS011;683;48.738;9.226;2022-08-19T03:17:34;26.50;;;23.80;;
1378;SDS011;683;48.738;9.226;2022-08-19T03:20:02;29.63;;;24.73;;
1378;SDS011;683;48.738;9.226;2022-08-19T03:22:40;27.57;;;24.70;;
1378;SDS011;683;48.738;9.226;2022-08-19T03:25:08;30.37;;;27.07;;
1378;SDS011;683;48.738;9.226;2022-08-19T03:27:38;28.17;;;25.13;;
1378;SDS011;683;48.738;9.226;2022-08-19T03:30:06;28.50;;;25.40;;
1378;SDS011;683;48.738;9.226;2022-08-19T03:32:36;29.40;;;26.23;;
1378;SDS011;683;48.738;9.226;2022-08-19T03:35:04;30.20;;;25.80;;
1378;SDS011;683;48.738;9.226;2022-08-19T03:37:32;28.57;;;25.60;;
1378;SDS011;683;48.738;9.226;2022-08-19T03:40:01;31.93;;;27.60;;
1378;SDS011;683;48.738;9.226;2022-08-19T03:42:30;28.50;;;25.50;;
1378;SDS011;683;48.738;9.226;2022-08-19T03:44:58;28.97;;;25.33;;
1378;SDS011;683;48.738;9.226;2022-08-19T03:47:25;30.40;;;27.30;;
1378;SDS011;683;48.738;9.226;2022-08-19T03:49:55;33.93;;;29.03;;
1378;SDS011;683;48.738;9.226;2022-08-19T03:52:22;32.40;;;28.93;;
1378;SDS011;683;48.738;9.226;2022-08-19T03:54:50;29.00;;;25.33;;
1378;SDS011;683;48.738;9.226;2022-08-19T03:57:18;31.47;;;28.07;;
1378;SDS011;683;48.738;9.226;2022-08-19T03:59:46;30.20;;;27.07;;
1378;SDS011;683;48.738;9.226;2022-08-19T04:02:13;29.60;;;26.40;;
1378;SDS011;683;48.738;9.226;2022-08-19T04:04:42;31.43;;;27.20;;
1378;SDS011;683;48.738;9.226;2022-08-19T04:07:12;31.83;;;28.43;;
1378;SDS011;683;48.738;9.226;2022-08-19T04:09:41;32.00;;;28.77;;
1378;SDS011;683;48.738;9.226;2022-08-19T04:12:09;30.07;;;26.87;;
1378;SDS011;683;48.738;9.226;2022-08-19T04:14:37;29.83;;;26.73;;
1378;SDS011;683;48.738;9.226;2022-08-19T04:17:05;31.33;;;28.20;;
1378;SDS011;683;48.738;9.226;2022-08-19T04:19:33;32.50;;;29.13;;
1378;SDS011;683;48.738;9.226;2022-08-19T04:22:02;34.00;;;30.40;;
1378;SDS011;683;48.738;9.226;2022-08-19T04:24:32;32.23;;;29.03;;
1378;SDS011;683;48.738;9.226;2022-08-19T04:27:00;32.00;;;28.57;;
1378;SDS011;683;48.738;9.226;2022-08-19T04:29:29;33.53;;;29.90;;
1378;SDS011;683;48.738;9.226;2022-08-19T04:31:57;33.03;;;29.67;;
1378;SDS011;683;48.738;9.226;2022-08-19T04:34:27;35.07;;;31.30;;
1378;SDS011;683;48.738;9.226;2022-08-19T04:36:56;32.57;;;29.17;;
1378;SDS011;683;48.738;9.226;2022-08-19T04:39:25;34.40;;;30.97;;
1378;SDS011;683;48.738;9.226;2022-08-19T04:42:10;33.77;;;30.17;;
1378;SDS011;683;48.738;9.226;2022-08-19T04:44:55;35.83;;;31.63;;
1378;SDS011;683;48.738;9.226;2022-08-19T04:47:24;34.43;;;30.70;;
1378;SDS011;683;48.738;9.226;2022-08-19T04:49:52;32.50;;;29.20;;
1378;SDS011;683;48.738;9.226;2022-08-19T04:52:19;32.97;;;29.57;;
1378;SDS011;683;48.738;9.226;2022-08-19T04:54:47;36.87;;;31.13;;
1378;SDS011;683;48.738;9.226;2022-08-19T04:57:16;35.33;;;31.67;;
1378;SDS011;683;48.738;9.226;2022-08-19T04:59:44;33.70;;;29.67;;
1378;SDS011;683;48.738;9.226;2022-08-19T05:02:12;33.33;;;29.80;;
1378;SDS011;683;48.738;9.226;2022-08-19T05:04:39;34.23;;;30.77;;
1378;SDS011;683;48.738;9.226;2022-08-19T05:07:07;32.40;;;29.23;;
1378;SDS011;683;48.738;9.226;2022-08-19T05:09:35;33.13;;;29.63;;
1378;SDS011;683;48.738;9.226;2022-08-19T05:12:03;32.13;;;28.93;;
1378;SDS011;683;48.738;9.226;2022-08-19T05:14:33;33.23;;;29.87;;
1378;SDS011;683;48.738;9.226;2022-08-19T05:17:02;33.33;;;29.43;;
1378;SDS011;683;48.738;9.226;2022-08-19T05:19:30;33.67;;;30.07;;
1378;SDS011;683;48.738;9.226;2022-08-19T05:22:15;33.30;;;29.90;;
1378;SDS011;683;48.738;9.226;2022-08-19T05:25:03;33.70;;;30.00;;
1378;SDS011;683;48.738;9.226;2022-08-19T05:27:32;32.57;;;29.33;;
1378;SDS011;683;48.738;9.226;2022-08-19T05:30:02;34.07;;;30.70;;
1378;SDS011;683;48.738;9.226;2022-08-19T05:32:31;36.90;;;29.30;;
1378;SDS011;683;48.738;9.226;2022-08-19T05:34:58;32.97;;;29.87;;
1378;SDS011;683;48.738;9.226;2022-08-19T05:37:26;32.27;;;28.80;;
1378;SDS011;683;48.738;9.226;2022-08-19T05:39:54;32.67;;;28.93;;
1378;SDS011;683;48.738;9.226;2022-08-19T05:42:22;34.03;;;30.43;;
1378;SDS011;683;48.738;9.226;2022-08-19T05:44:51;32.83;;;29.40;;
1378;SDS011;683;48.738;9.226;2022-08-19T05:47:20;30.77;;;27.63;;
1378;SDS011;683;48.738;9.226;2022-08-19T05:49:48;33.27;;;29.97;;
1378;SDS011;683;48.738;9.226;2022-08-19T05:52:16;30.83;;;27.60;;
1378;SDS011;683;48.738;9.226;2022-08-19T05:54:45;31.80;;;28.60;;
1378;SDS011;683;48.738;9.226;2022-08-19T05:57:13;34.07;;;30.57;;
1378;SDS011;683;48.738;9.226;2022-08-19T05:59:42;31.63;;;28.50;;
1378;SDS011;683;48.738;9.226;2022-08-19T06:02:17;32.10;;;28.77;;
1378;SDS011;683;48.738;9.226;2022-08-19T06:04:46;33.60;;;29.97;;
1378;SDS011;683;48.738;9.226;2022-08-19T06:07:13;31.43;;;28.23;;
1378;SDS011;683;48.738;9.226;2022-08-19T06:09:42;32.53;;;29.20;;
1378;SDS011;683;48.738;9.226;2022-08-19T06:12:10;33.77;;;30.57;;
1378;SDS011;683;48.738;9.226;2022-08-19T06:14:38;36.47;;;31.37;;
1378;SDS011;683;48.738;9.226;2022-08-19T06:17:07;35.30;;;30.53;;
1378;SDS011;683;48.738;9.226;2022-08-19T06:19:34;33.57;;;30.10;;
1378;SDS011;683;48.738;9.226;2022-08-19T06:22:05;33.27;;;29.93;;
1378;SDS011;683;48.738;9.226;2022-08-19T06:24:32;33.80;;;30.23;;
1378;SDS011;683;48.738;9.226;2022-08-19T06:27:00;34.27;;;30.77;;
1378;SDS011;683;48.738;9.226;2022-08-19T06:29:31;34.90;;;31.20;;
1378;SDS011;683;48.738;9.226;2022-08-19T06:32:00;37.63;;;33.80;;
1378;SDS011;683;48.738;9.226;2022-08-19T06:34:30;35.50;;;31.73;;
1378;SDS011;683;48.738;9.226;2022-08-19T06:36:59;38.40;;;34.30;;
1378;SDS011;683;48.738;9.226;2022-08-19T06:39:30;35.80;;;31.90;;
1378;SDS011;683;48.738;9.226;2022-08-19T06:42:00;36.57;;;32.77;;
1378;SDS011;683;48.738;9.226;2022-08-19T06:44:33;40.17;;;35.97;;
1378;SDS011;683;48.738;9.226;2022-08-19T06:47:02;33.20;;;29.70;;
1378;SDS011;683;48.738;9.226;2022-08-19T06:49:32;37.33;;;33.27;;
1378;SDS011;683;48.738;9.226;2022-08-19T06:52:01;36.70;;;32.90;;
1378;SDS011;683;48.738;9.226;2022-08-19T06:54:30;36.60;;;32.63;;
1378;SDS011;683;48.738;9.226;2022-08-19T06:56:59;37.83;;;33.77;;
1378;SDS011;683;48.738;9.226;2022-08-19T06:59:28;37.90;;;32.70;;
1378;SDS011;683;48.738;9.226;2022-08-19T07:01:58;37.93;;;34.17;;
1378;SDS011;683;48.738;9.226;2022-08-19T07:04:28;37.87;;;33.77;;
1378;SDS011;683;48.738;9.226;2022-08-19T07:06:58;38.10;;;34.33;;
1378;SDS011;683;48.738;9.226;2022-08-19T07:09:28;34.37;;;30.60;;
1378;SDS011;683;48.738;9.226;2022-08-19T07:11:58;35.43;;;30.33;;
1378;SDS011;683;48.738;9.226;2022-08-19T07:14:26;33.23;;;28.87;;
1378;SDS011;683;48.738;9.226;2022-08-19T07:16:55;36.07;;;32.13;;
1378;SDS011;683;48.738;9.226;2022-08-19T07:19:24;35.57;;;31.97;;
1378;SDS011;683;48.738;9.226;2022-08-19T07:21:54;33.23;;;30.00;;
1378;SDS011;683;48.738;9.226;2022-08-19T07:24:22;33.17;;;29.87;;
1378;SDS011;683;48.738;9.226;2022-08-19T07:26:53;32.23;;;28.80;;
1378;SDS011;683;48.738;9.226;2022-08-19T07:29:26;32.93;;;29.73;;
1378;SDS011;683;48.738;9.226;2022-08-19T07:31:54;34.97;;;31.37;;
1378;SDS011;683;48.738;9.226;2022-08-19T07:34:24;37.33;;;33.03;;
1378;SDS011;683;48.738;9.226;2022-08-19T07:36:52;34.57;;;31.03;;
1378;SDS011;683;48.738;9.226;2022-08-19T07:39:22;31.67;;;28.53;;
1378;SDS011;683;48.738;9.226;2022-08-19T07:41:53;33.67;;;30.07;;
1378;SDS011;683;48.738;9.226;2022-08-19T07:44:21;37.07;;;33.17;;
1378;SDS011;683;48.738;9.226;2022-08-19T07:46:50;38.83;;;33.93;;
1378;SDS011;683;48.738;9.226;2022-08-19T07:49:19;36.63;;;32.70;;
1378;SDS011;683;48.738;9.226;2022-08-19T07:51:50;41.97;;;34.90;;
1378;SDS011;683;48.738;9.226;2022-08-19T07:54:19;39.33;;;35.10;;
1378;SDS011;683;48.738;9.226;2022-08-19T07:56:48;40.53;;;35.23;;
1378;SDS011;683;48.738;9.226;2022-08-19T07:59:18;41.57;;;35.87;;
1378;SDS011;683;48.738;9.226;2022-08-19T08:01:47;41.80;;;37.30;;
1378;SDS011;683;48.738;9.226;2022-08-19T08:04:15;44.63;;;37.63;;
1378;SDS011;683;48.738;9.226;2022-08-19T08:07:01;40.70;;;35.73;;
1378;SDS011;683;48.738;9.226;2022-08-19T08:09:47;42.40;;;37.83;;
1378;SDS011;683;48.738;9.226;2022-08-19T08:12:16;44.97;;;36.03;;
1378;SDS011;683;48.738;9.226;2022-08-19T08:14:48;43.53;;;38.93;;
1378;SDS011;683;48.738;9.226;2022-08-19T08:17:25;42.83;;;36.80;;
1378;SDS011;683;48.738;9.226;2022-08-19T08:19:54;39.40;;;33.97;;
1378;SDS011;683;48.738;9.226;2022-08-19T08:22:23;42.67;;;36.90;;
1378;SDS011;683;48.738;9.226;2022-08-19T08:25:09;41.93;;;37.40;;
1378;SDS011;683;48.738;9.226;2022-08-19T08:27:41;43.13;;;35.80;;
1378;SDS011;683;48.738;9.226;2022-08-19T08:30:13;45.03;;;37.80;;
1378;SDS011;683;48.738;9.226;2022-08-19T08:32:43;40.00;;;34.80;;
1378;SDS011;683;48.738;9.226;2022-08-19T08:35:11;40.70;;;36.00;;
1378;SDS011;683;48.738;9.226;2022-08-19T08:37:43;39.50;;;35.13;;
1378;SDS011;683;48.738;9.226;2022-08-19T08:40:14;43.13;;;37.90;;
1378;SDS011;683;48.738;9.226;2022-08-19T08:42:47;40.60;;;35.23;;
1378;SDS011;683;48.738;9.226;2022-08-19T08:45:25;39.63;;;34.90;;
1378;SDS011;683;48.738;9.226;2022-08-19T08:47:55;39.30;;;34.80;;
1378;SDS011;683;48.738;9.226;2022-08-19T08:50:29;38.23;;;34.10;;
1378;SDS011;683;48.738;9.226;2022-08-19T08:53:01;38.37;;;34.27;;
1378;SDS011;683;48.738;9.226;2022-08-19T08:55:30;40.60;;;36.57;;
1378;SDS011;683;48.738;9.226;2022-08-19T08:58:00;37.30;;;33.40;;
1378;SDS011;683;48.738;9.226;2022-08-19T09:00:35;34.07;;;30.63;;
1378;SDS011;683;48.738;9.226;2022-08-19T09:03:06;35.27;;;31.77;;
1378;SDS011;683;48.738;9.226;2022-08-19T09:05:45;36.00;;;32.60;;
1378;SDS011;683;48.738;9.226;2022-08-19T09:08:30;37.03;;;33.47;;
1378;SDS011;683;48.738;9.226;2022-08-19T09:11:08;33.97;;;30.77;;
1378;SDS011;683;48.738;9.226;2022-08-19T09:13:42;33.27;;;29.87;;
1378;SDS011;683;48.738;9.226;2022-08-19T09:16:20;32.80;;;29.60;;
1378;SDS011;683;48.738;9.226;2022-08-19T09:18:55;33.87;;;30.67;;
1378;SDS011;683;48.738;9.226;2022-08-19T09:21:33;32.57;;;29.27;;
1378;SDS011;683;48.738;9.226;2022-08-19T09:24:02;32.63;;;29.53;;
1378;SDS011;683;48.738;9.226;2022-08-19T09:26:31;32.30;;;29.10;;
1378;SDS011;683;48.738;9.226;2022-08-19T09:29:00;33.40;;;30.30;;
1378;SDS011;683;48.738;9.226;2022-08-19T09:31:32;35.10;;;31.43;;
1378;SDS011;683;48.738;9.226;2022-08-19T09:33:59;38.00;;;33.97;;
1378;SDS011;683;48.738;9.226;2022-08-19T09:36:30;37.97;;;33.93;;
1378;SDS011;683;48.738;9.226;2022-08-19T09:39:02;35.90;;;32.40;;
1378;SDS011;683;48.738;9.226;2022-08-19T09:41:31;37.57;;;33.67;;
1378;SDS011;683;48.738;9.226;2022-08-19T09:43:59;37.23;;;33.53;;
1378;SDS011;683;48.738;9.226;2022-08-19T09:46:27;35.00;;;31.17;;
1378;SDS011;683;48.738;9.226;2022-08-19T09:48:58;36.50;;;32.90;;
1378;SDS011;683;48.738;9.226;2022-08-19T09:51:27;36.47;;;32.50;;
1378;SDS011;683;48.738;9.226;2022-08-19T09:53:58;35.27;;;31.60;;
1378;SDS011;683;48.738;9.226;2022-08-19T09:56:27;37.27;;;32.93;;
1378;SDS011;683;48.738;9.226;2022-08-19T09:58:57;37.23;;;33.23;;
1378;SDS011;683;48.738;9.226;2022-08-19T10:01:26;36.40;;;32.53;;
1378;SDS011;683;48.738;9.226;2022-08-19T10:03:55;40.73;;;33.07;;
1378;SDS011;683;48.738;9.226;2022-08-19T10:06:26;36.83;;;32.77;;
1378;SDS011;683;48.738;9.226;2022-08-19T10:08:58;38.70;;;34.60;;
1378;SDS011;683;48.738;9.226;2022-08-19T10:11:26;40.70;;;36.30;;
1378;SDS011;683;48.738;9.226;2022-08-19T10:13:54;38.90;;;34.77;;
1378;SDS011;683;48.738;9.226;2022-08-19T10:16:22;38.03;;;34.00;;
1378;SDS011;683;48.738;9.226;2022-08-19T10:18:51;37.20;;;33.30;;
1378;SDS011;683;48.738;9.226;2022-08-19T10:21:20;41.67;;;37.37;;
1378;SDS011;683;48.738;9.226;2022-08-19T10:23:52;38.17;;;34.10;;
1378;SDS011;683;48.738;9.226;2022-08-19T10:26:24;36.73;;;32.90;;
1378;SDS011;683;48.738;9.226;2022-08-19T10:28:55;37.50;;;33.50;;
1378;SDS011;683;48.738;9.226;2022-08-19T10:31:24;36.60;;;32.77;;
1378;SDS011;683;48.738;9.226;2022-08-19T10:33:53;35.43;;;31.87;;
1378;SDS011;683;48.738;9.226;2022-08-19T10:36:23;34.10;;;31.00;;
1378;SDS011;683;48.738;9.226;2022-08-19T10:38:55;34.50;;;31.07;;
1378;SDS011;683;48.738;9.226;2022-08-19T10:41:27;32.90;;;29.70;;
1378;SDS011;683;48.738;9.226;2022-08-19T10:43:57;33.13;;;29.97;;
1378;SDS011;683;48.738;9.226;2022-08-19T10:46:27;32.03;;;28.30;;
1378;SDS011;683;48.738;9.226;2022-08-19T10:48:56;35.37;;;30.80;;
1378;SDS011;683;48.738;9.226;2022-08-19T10:51:25;30.97;;;28.03;;
1378;SDS011;683;48.738;9.226;2022-08-19T10:54:12;29.10;;;26.50;;
1378;SDS011;683;48.738;9.226;2022-08-19T10:56:40;28.50;;;25.93;;
1378;SDS011;683;48.738;9.226;2022-08-19T10:59:19;31.67;;;28.77;;
1378;SDS011;683;48.738;9.226;2022-08-19T11:01:50;26.60;;;24.10;;
1378;SDS011;683;48.738;9.226;2022-08-19T11:04:18;28.30;;;25.60;;
1378;SDS011;683;48.738;9.226;2022-08-19T11:06:48;27.07;;;24.47;;
1378;SDS011;683;48.738;9.226;2022-08-19T11:09:18;29.23;;;25.70;;
1378;SDS011;683;48.738;9.226;2022-08-19T11:11:49;28.07;;;25.33;;
1378;SDS011;683;48.738;9.226;2022-08-19T11:14:19;26.20;;;23.73;;
1378;SDS011;683;48.738;9.226;2022-08-19T11:16:47;25.23;;;22.63;;
1378;SDS011;683;48.738;9.226;2022-08-19T11:19:17;25.43;;;23.20;;
1378;SDS011;683;48.738;9.226;2022-08-19T11:21:46;26.73;;;24.03;;
1378;SDS011;683;48.738;9.226;2022-08-19T11:24:16;23.83;;;21.03;;
1378;SDS011;683;48.738;9.226;2022-08-19T11:26:47;25.20;;;23.00;;
1378;SDS011;683;48.738;9.226;2022-08-19T11:29:16;25.77;;;23.50;;
1378;SDS011;683;48.738;9.226;2022-08-19T11:31:46;27.53;;;24.60;;
1378;SDS011;683;48.738;9.226;2022-08-19T11:34:16;28.37;;;25.57;;
1378;SDS011;683;48.738;9.226;2022-08-19T11:36:46;28.37;;;25.53;;
1378;SDS011;683;48.738;9.226;2022-08-19T11:39:17;32.53;;;29.33;;
1378;SDS011;683;48.738;9.226;2022-08-19T11:41:47;33.43;;;29.90;;
1378;SDS011;683;48.738;9.226;2022-08-19T11:44:15;30.83;;;27.90;;
1378;SDS011;683;48.738;9.226;2022-08-19T11:46:43;31.00;;;27.80;;
1378;SDS011;683;48.738;9.226;2022-08-19T11:49:12;30.67;;;27.63;;
1378;SDS011;683;48.738;9.226;2022-08-19T11:51:41;29.07;;;26.37;;
1378;SDS011;683;48.738;9.226;2022-08-19T11:54:10;31.50;;;28.53;;
1378;SDS011;683;48.738;9.226;2022-08-19T11:56:40;34.50;;;30.70;;
1378;SDS011;683;48.738;9.226;2022-08-19T11:59:08;35.20;;;31.63;;
1378;SDS011;683;48.738;9.226;2022-08-19T12:01:37;36.13;;;32.70;;
1378;SDS011;683;48.738;9.226;2022-08-19T12:04:07;35.80;;;32.50;;
1378;SDS011;683;48.738;9.226;2022-08-19T12:06:37;33.10;;;29.93;;
1378;SDS011;683;48.738;9.226;2022-08-19T12:09:07;33.87;;;30.47;;
1378;SDS011;683;48.738;9.226;2022-08-19T12:11:36;35.70;;;32.23;;
1378;SDS011;683;48.738;9.226;2022-08-19T12:14:06;35.70;;;31.97;;
1378;SDS011;683;48.738;9.226;2022-08-19T12:16:36;39.63;;;33.17;;
1378;SDS011;683;48.738;9.226;2022-08-19T12:19:05;36.33;;;32.93;;
1378;SDS011;683;48.738;9.226;2022-08-19T12:21:34;37.50;;;33.77;;
1378;SDS011;683;48.738;9.226;2022-08-19T12:24:03;37.97;;;34.27;;
1378;SDS011;683;48.738;9.226;2022-08-19T12:26:32;39.53;;;35.63;;
1378;SDS011;683;48.738;9.226;2022-08-19T12:29:00;39.70;;;35.70;;
1378;SDS011;683;48.738;9.226;2022-08-19T12:31:29;38.33;;;34.40;;
1378;SDS011;683;48.738;9.226;2022-08-19T12:33:57;39.30;;;35.10;;
1378;SDS011;683;48.738;9.226;2022-08-19T12:36:28;40.77;;;36.67;;
1378;SDS011;683;48.738;9.226;2022-08-19T12:38:57;42.73;;;38.67;;
1378;SDS011;683;48.738;9.226;2022-08-19T12:41:25;41.53;;;37.33;;
1378;SDS011;683;48.738;9.226;2022-08-19T12:43:54;40.97;;;36.93;;
1378;SDS011;683;48.738;9.226;2022-08-19T12:46:23;42.20;;;37.70;;
1378;SDS011;683;48.738;9.226;2022-08-19T12:48:53;40.97;;;36.83;;
1378;SDS011;683;48.738;9.226;2022-08-19T12:51:20;40.80;;;36.60;;
1378;SDS011;683;48.738;9.226;2022-08-19T12:53:48;40.17;;;35.93;;
1378;SDS011;683;48.738;9.226;2022-08-19T12:56:16;43.10;;;38.90;;
1378;SDS011;683;48.738;9.226;2022-08-19T12:58:44;40.63;;;36.40;;
1378;SDS011;683;48.738;9.226;2022-08-19T13:01:13;40.90;;;36.97;;
1378;SDS011;683;48.738;9.226;2022-08-19T13:03:44;41.40;;;37.20;;
1378;SDS011;683;48.738;9.226;2022-08-19T13:06:14;38.37;;;34.57;;
1378;SDS011;683;48.738;9.226;2022-08-19T13:08:43;38.97;;;35.10;;
1378;SDS011;683;48.738;9.226;2022-08-19T13:11:12;40.87;;;36.10;;
1378;SDS011;683;48.738;9.226;2022-08-19T13:13:42;38.93;;;35.03;;
1378;SDS011;683;48.738;9.226;2022-08-19T13:16:12;38.90;;;35.20;;
1378;SDS011;683;48.738;9.226;2022-08-19T13:18:40;40.87;;;36.97;;
1378;SDS011;683;48.738;9.226;2022-08-19T13:21:10;40.60;;;36.40;;
1378;SDS011;683;48.738;9.226;2022-08-19T13:23:40;39.97;;;35.87;;
1378;SDS011;683;48.738;9.226;2022-08-19T13:26:08;41.43;;;37.20;;
1378;SDS011;683;48.738;9.226;2022-08-19T13:28:37;42.40;;;37.67;;
1378;SDS011;683;48.738;9.226;2022-08-19T13:31:23;39.77;;;35.53;;
1378;SDS011;683;48.738;9.226;2022-08-19T13:34:10;41.63;;;37.10;;
1378;SDS011;683;48.738;9.226;2022-08-19T13:36:39;39.50;;;35.53;;
1378;SDS011;683;48.738;9.226;2022-08-19T13:39:09;42.20;;;37.77;;
1378;SDS011;683;48.738;9.226;2022-08-19T13:41:42;41.27;;;37.27;;
1378;SDS011;683;48.738;9.226;2022-08-19T13:44:13;42.63;;;38.40;;
1378;SDS011;683;48.738;9.226;2022-08-19T13:46:43;39.90;;;35.83;;
1378;SDS011;683;48.738;9.226;2022-08-19T13:49:19;40.40;;;36.50;;
1378;SDS011;683;48.738;9.226;2022-08-19T13:51:48;42.13;;;37.97;;
1378;SDS011;683;48.738;9.226;2022-08-19T13:54:17;42.50;;;37.53;;
1378;SDS011;683;48.738;9.226;2022-08-19T13:56:45;46.77;;;40.43;;
1378;SDS011;683;48.738;9.226;2022-08-19T13:59:13;42.60;;;38.13;;
1378;SDS011;683;48.738;9.226;2022-08-19T14:01:41;46.60;;;41.90;;
1378;SDS011;683;48.738;9.226;2022-08-19T14:04:09;44.57;;;40.03;;
1378;SDS011;683;48.738;9.226;2022-08-19T14:06:38;56.90;;;42.53;;
1378;SDS011;683;48.738;9.226;2022-08-19T14:09:07;45.77;;;40.77;;
1378;SDS011;683;48.738;9.226;2022-08-19T14:11:37;49.37;;;43.87;;
1378;SDS011;683;48.738;9.226;2022-08-19T14:14:04;44.97;;;40.47;;
1378;SDS011;683;48.738;9.226;2022-08-19T14:16:32;45.70;;;40.90;;
1378;SDS011;683;48.738;9.226;2022-08-19T14:19:00;46.73;;;41.97;;
1378;SDS011;683;48.738;9.226;2022-08-19T14:21:28;45.87;;;41.07;;
1378;SDS011;683;48.738;9.226;2022-08-19T14:23:55;46.50;;;41.60;;
1378;SDS011;683;48.738;9.226;2022-08-19T14:26:24;44.77;;;40.47;;
1378;SDS011;683;48.738;9.226;2022-08-19T14:28:53;47.20;;;42.27;;
1378;SDS011;683;48.738;9.226;2022-08-19T14:31:23;39.80;;;35.83;;
1378;SDS011;683;48.738;9.226;2022-08-19T14:33:51;43.30;;;38.90;;
1378;SDS011;683;48.738;9.226;2022-08-19T14:36:19;44.30;;;39.57;;
1378;SDS011;683;48.738;9.226;2022-08-19T14:38:47;37.83;;;34.10;;
1378;SDS011;683;48.738;9.226;2022-08-19T14:41:16;41.87;;;37.33;;
1378;SDS011;683;48.738;9.226;2022-08-19T14:43:46;40.03;;;36.23;;
1378;SDS011;683;48.738;9.226;2022-08-19T14:46:17;42.33;;;38.07;;
1378;SDS011;683;48.738;9.226;2022-08-19T14:48:48;39.37;;;35.47;;
1378;SDS011;683;48.738;9.226;2022-08-19T14:51:17;36.90;;;33.40;;
1378;SDS011;683;48.738;9.226;2022-08-19T14:53:45;36.03;;;32.73;;
1378;SDS011;683;48.738;9.226;2022-08-19T14:56:15;37.07;;;33.27;;
1378;SDS011;683;48.738;9.226;2022-08-19T14:58:47;37.03;;;33.60;;
1378;SDS011;683;48.738;9.226;2022-08-19T15:01:19;35.43;;;32.13;;
1378;SDS011;683;48.738;9.226;2022-08-19T15:03:49;36.07;;;32.63;;
1378;SDS011;683;48.738;9.226;2022-08-19T15:06:18;35.77;;;32.40;;
1378;SDS011;683;48.738;9.226;2022-08-19T15:08:46;38.13;;;34.60;;
1378;SDS011;683;48.738;9.226;2022-08-19T15:11:17;37.00;;;33.30;;
1378;SDS011;683;48.738;9.226;2022-08-19T15:13:47;35.37;;;32.00;;
1378;SDS011;683;48.738;9.226;2022-08-19T15:16:15;33.30;;;30.20;;